createdAt,value
2022-12-04T00:01:32.672Z,98292.29
2022-12-04T00:04:01.962Z,98293.51
2022-12-04T00:06:30.968Z,98290.82
2022-12-04T00:09:01.060Z,98293.76
2022-12-04T00:11:32.027Z,98291.36
2022-12-04T00:14:07.028Z,98287.44
2022-12-04T00:16:37.331Z,98290.17
2022-12-04T00:19:06.379Z,98291.92
2022-12-04T00:21:36.193Z,98288.52
2022-12-04T00:24:06.327Z,98285.09
2022-12-04T00:26:35.503Z,98286.83
2022-12-04T00:29:05.245Z,98288.40
2022-12-04T00:31:34.776Z,98288.93
2022-12-04T00:34:08.042Z,98289.45
2022-12-04T00:36:38.642Z,98286.90
2022-12-04T00:39:09.048Z,98284.16
2022-12-04T00:41:39.101Z,98284.36
2022-12-04T00:44:09.118Z,98286.46
2022-12-04T00:46:39.260Z,98283.89
2022-12-04T00:49:08.432Z,98278.08
2022-12-04T00:51:38.430Z,98279.13
2022-12-04T00:54:07.996Z,98283.59
2022-12-04T00:56:37.878Z,98286.53
2022-12-04T00:59:06.730Z,98285.52
2022-12-04T01:01:35.758Z,98281.60
2022-12-04T01:04:04.922Z,98279.94
2022-12-04T01:06:35.865Z,98283.40
2022-12-04T01:09:06.974Z,98284.95
2022-12-04T01:11:37.562Z,98284.83
2022-12-04T01:14:06.856Z,98283.70
2022-12-04T01:16:39.604Z,98284.26
2022-12-04T01:19:12.074Z,98284.45
2022-12-04T01:21:42.803Z,98287.52
2022-12-04T01:24:13.673Z,98282.34
2022-12-04T01:26:43.704Z,98284.02
2022-12-04T01:29:13.210Z,98281.11
2022-12-04T01:31:43.412Z,98280.09
2022-12-04T01:34:12.768Z,98279.95
2022-12-04T01:36:42.225Z,98281.17
2022-12-04T01:39:11.119Z,98279.29
2022-12-04T01:41:41.470Z,98275.88
2022-12-04T01:44:23.808Z,98274.35
2022-12-04T01:47:00.445Z,98272.32
2022-12-04T01:49:49.081Z,98271.14
2022-12-04T01:52:23.287Z,98265.70
2022-12-04T01:54:58.009Z,98265.39
2022-12-04T01:57:32.150Z,98269.67
2022-12-04T02:00:10.388Z,98272.09
2022-12-04T02:02:44.266Z,98269.88
2022-12-04T02:05:17.321Z,98270.91
2022-12-04T02:07:49.147Z,98275.37
2022-12-04T02:10:25.264Z,98277.46
2022-12-04T02:13:19.022Z,98277.31
2022-12-04T02:16:03.068Z,98279.61
2022-12-04T02:19:13.230Z,98278.13
2022-12-04T02:21:48.488Z,98274.61
2022-12-04T02:24:25.046Z,98270.69
2022-12-04T02:27:10.378Z,98270.34
2022-12-04T02:29:58.119Z,98270.66
2022-12-04T02:32:46.954Z,98267.39
2022-12-04T02:35:23.679Z,98262.61
2022-12-04T02:38:05.718Z,98259.52
2022-12-04T02:41:07.166Z,98260.02
2022-12-04T02:43:45.131Z,98256.05
2022-12-04T02:46:25.549Z,98255.38
2022-12-04T02:49:02.143Z,98257.61
2022-12-04T02:51:37.388Z,98249.44
2022-12-04T02:54:15.195Z,98251.72
2022-12-04T02:56:49.546Z,98252.13
2022-12-04T02:59:25.983Z,98251.85
2022-12-04T03:02:01.158Z,98260.42
2022-12-04T03:04:32.142Z,98264.91
2022-12-04T03:07:12.218Z,98265.80
2022-12-04T03:09:47.027Z,98262.01
2022-12-04T03:12:51.277Z,98257.56
2022-12-04T03:15:39.909Z,98257.24
2022-12-04T03:18:19.125Z,98250.05
2022-12-04T03:20:54.040Z,98247.50
2022-12-04T03:23:32.165Z,98249.58
2022-12-04T03:26:36.276Z,98258.70
2022-12-04T03:29:28.905Z,98261.10
2022-12-04T03:32:06.055Z,98254.73
2022-12-04T03:34:56.731Z,98249.84
2022-12-04T03:37:54.186Z,98250.38
2022-12-04T03:40:37.439Z,98254.63
2022-12-04T03:43:14.718Z,98258.55
2022-12-04T03:45:58.599Z,98263.34
2022-12-04T03:49:16.577Z,98260.81
2022-12-04T03:52:02.093Z,98258.46
2022-12-04T03:54:46.066Z,98258.02
2022-12-04T03:57:24.516Z,98257.20
2022-12-04T04:00:09.444Z,98259.46
2022-12-04T04:02:50.043Z,98260.03
2022-12-04T04:05:21.916Z,98256.98
2022-12-04T04:08:19.474Z,98257.86
2022-12-04T04:10:52.410Z,98256.84
2022-12-04T04:13:51.278Z,98254.59
2022-12-04T04:16:42.346Z,98258.17
2022-12-04T04:19:33.083Z,98250.15
2022-12-04T04:22:24.639Z,98241.92
2022-12-04T04:25:05.724Z,98234.70
2022-12-04T04:27:35.204Z,98231.05
2022-12-04T04:30:06.868Z,98238.59
2022-12-04T04:32:47.762Z,98249.39
2022-12-04T04:35:26.003Z,98247.16
2022-12-04T04:38:13.686Z,98248.20
2022-12-04T04:40:46.102Z,98251.86
2022-12-04T04:43:26.772Z,98253.25
2022-12-04T04:46:06.111Z,98252.44
2022-12-04T04:48:46.990Z,98249.27
2022-12-04T04:51:17.203Z,98252.58
2022-12-04T04:53:56.134Z,98252.05
2022-12-04T04:56:26.162Z,98242.11
2022-12-04T04:58:55.128Z,98241.59
2022-12-04T05:01:28.527Z,98241.23
2022-12-04T05:03:57.412Z,98242.61
2022-12-04T05:06:27.903Z,98237.83
2022-12-04T05:08:57.678Z,98235.42
2022-12-04T05:11:28.032Z,98238.67
2022-12-04T05:13:57.506Z,98243.99
2022-12-04T05:16:27.069Z,98245.95
2022-12-04T05:19:15.264Z,98240.06
2022-12-04T05:21:44.747Z,98244.05
2022-12-04T05:24:14.113Z,98244.39
2022-12-04T05:26:43.758Z,98238.54
2022-12-04T05:29:13.243Z,98239.02
2022-12-04T05:31:43.027Z,98242.95
2022-12-04T05:34:12.704Z,98243.83
2022-12-04T05:36:42.074Z,98252.98
2022-12-04T05:39:11.364Z,98257.27
2022-12-04T05:41:40.686Z,98258.69
2022-12-04T05:44:09.764Z,98259.38
2022-12-04T05:46:38.914Z,98257.83
2022-12-04T05:49:08.768Z,98261.48
2022-12-04T05:51:38.184Z,98259.15
2022-12-04T05:54:07.475Z,98256.62
2022-12-04T05:56:36.874Z,98258.17
2022-12-04T05:59:09.464Z,98257.55
2022-12-04T06:01:38.203Z,98256.55
2022-12-04T06:04:07.851Z,98255.42
2022-12-04T06:06:36.937Z,98254.79
2022-12-04T06:09:07.630Z,98260.48
2022-12-04T06:11:38.512Z,98262.69
2022-12-04T06:14:10.709Z,98264.04
2022-12-04T06:16:43.025Z,98266.25
2022-12-04T06:19:18.615Z,98268.69
2022-12-04T06:21:50.315Z,98270.77
2022-12-04T06:24:23.553Z,98278.56
2022-12-04T06:27:26.771Z,98284.05
2022-12-04T06:29:46.821Z,98289.05
2022-12-04T06:32:21.192Z,98287.46
2022-12-04T06:34:55.053Z,98281.23
2022-12-04T06:37:25.366Z,98278.39
2022-12-04T06:39:54.279Z,98279.70
2022-12-04T06:42:23.365Z,98284.14
2022-12-04T06:44:52.350Z,98278.42
2022-12-04T06:47:21.242Z,98275.30
2022-12-04T06:49:51.730Z,98276.80
2022-12-04T06:52:20.760Z,98278.93
2022-12-04T06:54:49.342Z,98277.13
2022-12-04T06:57:18.127Z,98276.21
2022-12-04T06:59:47.230Z,98270.09
2022-12-04T07:02:16.376Z,98269.05
2022-12-04T07:04:45.760Z,98269.71
2022-12-04T07:07:15.837Z,98270.39
2022-12-04T07:09:45.794Z,98272.20
2022-12-04T07:12:15.784Z,98277.04
2022-12-04T07:14:44.658Z,98274.25
2022-12-04T07:17:13.355Z,98279.80
2022-12-04T07:19:42.139Z,98279.23
2022-12-04T07:22:11.023Z,98283.19
2022-12-04T07:24:39.504Z,98278.09
2022-12-04T07:27:08.305Z,98273.48
2022-12-04T07:29:37.083Z,98274.27
2022-12-04T07:32:05.952Z,98271.34
2022-12-04T07:34:36.191Z,98277.22
2022-12-04T07:37:04.671Z,98287.42
2022-12-04T07:39:33.869Z,98289.55
2022-12-04T07:42:02.455Z,98290.77
2022-12-04T07:44:32.573Z,98285.11
2022-12-04T07:47:01.255Z,98283.37
2022-12-04T07:49:29.945Z,98283.40
2022-12-04T07:51:58.528Z,98283.19
2022-12-04T07:54:27.326Z,98287.91
2022-12-04T07:56:56.714Z,98292.07
2022-12-04T07:59:25.409Z,98295.08
2022-12-04T08:01:54.053Z,98293.11
2022-12-04T08:04:23.044Z,98292.30
2022-12-04T08:06:52.182Z,98296.34
2022-12-04T08:09:20.861Z,98296.56
2022-12-04T08:11:49.472Z,98293.31
2022-12-04T08:14:18.231Z,98289.84
2022-12-04T08:16:52.873Z,98286.99
2022-12-04T08:19:22.770Z,98283.98
2022-12-04T08:21:51.764Z,98284.47
2022-12-04T08:24:20.353Z,98288.23
2022-12-04T08:26:49.751Z,98288.87
2022-12-04T08:29:18.431Z,98283.95
2022-12-04T08:31:47.023Z,98276.89
2022-12-04T08:34:16.238Z,98268.90
2022-12-04T08:36:44.795Z,98267.30
2022-12-04T08:39:13.684Z,98269.66
2022-12-04T08:41:42.272Z,98268.99
2022-12-04T08:44:10.853Z,98267.38
2022-12-04T08:46:39.723Z,98262.48
2022-12-04T08:49:08.737Z,98260.58
2022-12-04T08:51:37.829Z,98253.08
2022-12-04T08:54:09.216Z,98252.71
2022-12-04T08:56:38.067Z,98247.98
2022-12-04T08:59:07.269Z,98247.90
2022-12-04T09:01:35.767Z,98249.86
2022-12-04T09:04:04.602Z,98246.41
2022-12-04T09:06:33.636Z,98245.92
2022-12-04T09:09:02.210Z,98242.70
2022-12-04T09:11:32.959Z,98240.37
2022-12-04T09:14:02.520Z,98240.27
2022-12-04T09:16:31.430Z,98238.00
2022-12-04T09:19:00.539Z,98235.41
2022-12-04T09:21:29.533Z,98230.58
2022-12-04T09:23:59.856Z,98226.08
2022-12-04T09:26:31.774Z,98222.86
2022-12-04T09:29:02.243Z,98221.04
2022-12-04T09:31:32.473Z,98218.20
2022-12-04T09:34:02.184Z,98223.32
2022-12-04T09:36:30.962Z,98214.08
2022-12-04T09:38:59.858Z,98214.70
2022-12-04T09:41:57.415Z,98215.26
2022-12-04T09:44:41.259Z,98214.84
2022-12-04T09:47:23.665Z,98212.36
2022-12-04T09:49:58.483Z,98215.40
2022-12-04T09:52:39.545Z,98209.91
2022-12-04T09:55:16.273Z,98205.55
2022-12-04T09:57:48.387Z,98204.89
2022-12-04T10:00:19.752Z,98202.87
2022-12-04T10:03:12.825Z,98205.34
2022-12-04T10:06:00.447Z,98201.23
2022-12-04T10:08:35.488Z,98198.74
2022-12-04T10:11:32.515Z,98194.58
2022-12-04T10:14:29.067Z,98189.18
2022-12-04T10:17:32.684Z,98184.45
2022-12-04T10:20:04.636Z,98184.67
2022-12-04T10:23:24.928Z,98188.88
2022-12-04T10:25:55.557Z,98183.75
2022-12-04T10:28:34.796Z,98181.20
2022-12-04T10:31:06.367Z,98175.77
2022-12-04T10:33:47.992Z,98175.40
2022-12-04T10:36:21.934Z,98172.29
2022-12-04T10:38:57.290Z,98169.88
2022-12-04T10:41:52.286Z,98167.87
2022-12-04T10:44:21.381Z,98156.15
2022-12-04T10:46:53.922Z,98148.67
2022-12-04T10:49:36.007Z,98135.80
2022-12-04T10:52:05.458Z,98138.72
2022-12-04T10:54:40.766Z,98136.29
2022-12-04T10:57:14.299Z,98130.43
2022-12-04T10:59:50.148Z,98116.79
2022-12-04T11:02:28.088Z,98108.48
2022-12-04T11:04:59.663Z,98106.86
2022-12-04T11:07:32.661Z,98111.75
2022-12-04T11:10:10.147Z,98114.77
2022-12-04T11:12:38.670Z,98109.85
2022-12-04T11:15:07.153Z,98104.05
2022-12-04T11:17:36.149Z,98095.19
2022-12-04T11:20:28.072Z,98091.98
2022-12-04T11:22:59.114Z,98097.98
2022-12-04T11:25:34.559Z,98091.16
2022-12-04T11:28:04.499Z,98089.43
2022-12-04T11:30:38.348Z,98093.52
2022-12-04T11:33:18.836Z,98088.28
2022-12-04T11:35:57.409Z,98077.27
2022-12-04T11:38:28.613Z,98075.66
2022-12-04T11:40:59.351Z,98072.54
2022-12-04T11:43:30.455Z,98071.38
2022-12-04T11:46:06.760Z,98069.45
2022-12-04T11:48:44.312Z,98063.89
2022-12-04T11:51:24.185Z,98063.67
2022-12-04T11:54:12.022Z,98065.92
2022-12-04T11:56:45.926Z,98062.66
2022-12-04T11:59:39.697Z,98056.80
2022-12-04T12:02:20.488Z,98050.61
2022-12-04T12:05:18.954Z,98047.27
2022-12-04T12:08:02.580Z,98046.10
2022-12-04T12:10:58.612Z,98044.27
2022-12-04T12:13:54.332Z,98047.64
2022-12-04T12:16:38.226Z,98036.23
2022-12-04T12:19:16.077Z,98032.23
2022-12-04T12:21:50.399Z,98028.41
2022-12-04T12:24:27.795Z,98027.48
2022-12-04T12:27:46.508Z,98025.27
2022-12-04T12:30:23.692Z,98026.88
2022-12-04T12:33:08.385Z,98028.79
2022-12-04T12:35:41.887Z,98030.52
2022-12-04T12:38:16.824Z,98023.95
2022-12-04T12:40:51.338Z,98020.05
2022-12-04T12:43:33.324Z,98022.16
2022-12-04T12:46:20.612Z,98022.53
2022-12-04T12:49:23.447Z,98022.17
2022-12-04T12:51:58.995Z,98018.41
2022-12-04T12:54:44.578Z,98022.52
2022-12-04T12:57:29.855Z,98023.92
2022-12-04T13:00:05.204Z,98017.45
2022-12-04T13:02:47.264Z,98015.29
2022-12-04T13:05:25.797Z,98007.27
2022-12-04T13:08:05.831Z,98000.42
2022-12-04T13:10:54.100Z,98002.95
2022-12-04T13:13:27.495Z,98001.66
2022-12-04T13:16:12.730Z,98007.58
2022-12-04T13:18:48.728Z,98009.29
2022-12-04T13:21:37.584Z,98010.25
2022-12-04T13:24:27.879Z,98007.68
2022-12-04T13:27:05.573Z,98005.73
2022-12-04T13:30:04.057Z,98006.30
2022-12-04T13:32:42.189Z,98001.80
2022-12-04T13:35:38.703Z,98000.63
2022-12-04T13:38:23.974Z,98006.22
2022-12-04T13:40:57.984Z,98007.79
2022-12-04T13:43:35.685Z,98012.48
2022-12-04T13:46:26.220Z,98016.27
2022-12-04T13:48:55.864Z,98010.38
2022-12-04T13:51:39.730Z,98016.91
2022-12-04T13:54:11.793Z,98017.50
2022-12-04T13:56:48.916Z,98020.00
2022-12-04T13:59:32.464Z,98020.88
2022-12-04T14:02:21.933Z,98015.03
2022-12-04T14:04:59.550Z,98015.91
2022-12-04T14:07:34.006Z,98012.72
2022-12-04T14:10:14.567Z,98013.83
2022-12-04T14:12:50.933Z,98018.63
2022-12-04T14:15:26.090Z,98022.66
2022-12-04T14:18:11.751Z,98018.10
2022-12-04T14:20:42.847Z,98019.38
2022-12-04T14:23:26.460Z,98018.85
2022-12-04T14:25:58.086Z,98019.73
2022-12-04T14:28:28.613Z,98016.61
2022-12-04T14:31:09.387Z,98023.86
2022-12-04T14:33:48.719Z,98025.09
2022-12-04T14:36:33.786Z,98023.02
2022-12-04T14:39:34.109Z,98021.84
2022-12-04T14:42:14.060Z,98023.97
2022-12-04T14:44:45.807Z,98028.46
2022-12-04T14:47:40.516Z,98026.84
2022-12-04T14:50:15.033Z,98022.71
2022-12-04T14:53:02.259Z,98023.52
2022-12-04T14:55:52.244Z,98019.42
2022-12-04T14:58:31.892Z,98021.09
2022-12-04T15:01:00.570Z,98021.14
2022-12-04T15:03:34.825Z,98022.64
2022-12-04T15:06:12.279Z,98022.54
2022-12-04T15:08:50.952Z,98025.92
2022-12-04T15:11:39.348Z,98021.09
2022-12-04T15:14:14.687Z,98018.47
2022-12-04T15:16:43.810Z,98017.64
2022-12-04T15:19:23.324Z,98017.39
2022-12-04T15:21:52.367Z,98019.00
2022-12-04T15:24:23.613Z,98017.68
2022-12-04T15:26:54.500Z,98019.61
2022-12-04T15:29:28.209Z,98018.26
2022-12-04T15:32:02.577Z,98019.13
2022-12-04T15:34:43.498Z,98024.90
2022-12-04T15:37:25.935Z,98028.77
2022-12-04T15:39:57.812Z,98028.67
2022-12-04T15:42:28.324Z,98026.70
2022-12-04T15:45:03.953Z,98032.79
2022-12-04T15:47:54.353Z,98025.67
2022-12-04T15:50:24.110Z,98026.33
2022-12-04T15:52:55.276Z,98024.70
2022-12-04T15:55:25.510Z,98025.26
2022-12-04T15:58:02.337Z,98030.58
2022-12-04T16:00:38.009Z,98032.48
2022-12-04T16:03:23.483Z,98026.27
2022-12-04T16:06:07.150Z,98026.59
2022-12-04T16:08:39.316Z,98029.66
2022-12-04T16:11:23.070Z,98033.20
2022-12-04T16:14:11.697Z,98034.05
2022-12-04T16:16:43.971Z,98036.84
2022-12-04T16:19:17.887Z,98038.75
2022-12-04T16:21:46.934Z,98037.02
2022-12-04T16:24:15.458Z,98042.55
2022-12-04T16:26:44.043Z,98044.50
2022-12-04T16:29:12.593Z,98047.00
2022-12-04T16:31:41.133Z,98050.33
2022-12-04T16:34:12.983Z,98050.67
2022-12-04T16:36:42.040Z,98053.55
2022-12-04T16:39:13.089Z,98048.45
2022-12-04T16:41:42.099Z,98053.46
2022-12-04T16:44:16.004Z,98055.96
2022-12-04T16:46:45.108Z,98055.72
2022-12-04T16:49:14.140Z,98055.04
2022-12-04T16:51:46.620Z,98052.89
2022-12-04T16:54:15.199Z,98057.66
2022-12-04T16:56:43.725Z,98059.94
2022-12-04T16:59:12.660Z,98063.36
2022-12-04T17:01:46.010Z,98060.77
2022-12-04T17:04:16.018Z,98060.42
2022-12-04T17:06:45.946Z,98060.62
2022-12-04T17:09:14.995Z,98058.89
2022-12-04T17:11:44.111Z,98054.19
2022-12-04T17:14:13.071Z,98054.36
2022-12-04T17:16:43.764Z,98055.52
2022-12-04T17:19:13.318Z,98054.08
2022-12-04T17:21:42.159Z,98058.64
2022-12-04T17:24:11.252Z,98064.04
2022-12-04T17:26:39.834Z,98065.09
2022-12-04T17:29:08.523Z,98065.52
2022-12-04T17:31:37.398Z,98073.15
2022-12-04T17:34:05.858Z,98077.77
2022-12-04T17:36:34.355Z,98075.39
2022-12-04T17:39:03.105Z,98073.02
2022-12-04T17:41:33.998Z,98077.88
2022-12-04T17:44:02.719Z,98077.83
2022-12-04T17:46:31.284Z,98077.53
2022-12-04T17:49:05.311Z,98077.20
2022-12-04T17:51:36.124Z,98081.83
2022-12-04T17:54:06.529Z,98081.04
2022-12-04T17:56:35.125Z,98081.56
2022-12-04T17:59:04.958Z,98079.05
2022-12-04T18:01:33.806Z,98084.00
2022-12-04T18:04:05.017Z,98086.35
2022-12-04T18:06:36.723Z,98084.69
2022-12-04T18:09:07.047Z,98086.89
2022-12-04T18:11:37.987Z,98087.88
2022-12-04T18:14:12.960Z,98089.27
2022-12-04T18:16:47.755Z,98093.23
2022-12-04T18:19:16.336Z,98094.15
2022-12-04T18:21:44.871Z,98098.26
2022-12-04T18:24:14.332Z,98092.75
2022-12-04T18:26:48.407Z,98095.13
2022-12-04T18:29:24.282Z,98100.09
2022-12-04T18:31:53.253Z,98104.01
2022-12-04T18:34:21.979Z,98100.43
2022-12-04T18:36:51.080Z,98099.91
2022-12-04T18:39:25.027Z,98102.46
2022-12-04T18:41:57.239Z,98102.11
2022-12-04T18:44:26.813Z,98103.84
2022-12-04T18:46:55.216Z,98103.30
2022-12-04T18:49:23.773Z,98105.54
2022-12-04T18:51:52.154Z,98102.48
2022-12-04T18:54:23.744Z,98104.38
2022-12-04T18:56:52.477Z,98108.85
2022-12-04T18:59:23.579Z,98107.70
2022-12-04T19:01:53.500Z,98107.27
2022-12-04T19:04:24.117Z,98106.66
2022-12-04T19:06:55.243Z,98104.86
2022-12-04T19:12:16.028Z,98107.02
2022-12-04T19:14:44.456Z,98105.33
2022-12-04T19:17:13.547Z,98102.64
2022-12-04T19:19:42.905Z,98105.80
2022-12-04T19:22:11.529Z,98113.42
2022-12-04T19:24:40.217Z,98119.29
2022-12-04T19:27:12.386Z,98123.48
2022-12-04T19:29:42.812Z,98120.14
2022-12-04T19:32:12.080Z,98125.87
2022-12-04T19:34:41.046Z,98131.23
2022-12-04T19:37:09.690Z,98126.81
2022-12-04T19:39:38.325Z,98123.95
2022-12-04T19:42:07.828Z,98123.99
2022-12-04T19:44:52.239Z,98124.08
2022-12-04T19:47:21.016Z,98127.36
2022-12-04T19:49:49.706Z,98129.64
2022-12-04T19:52:18.294Z,98126.73
2022-12-04T19:54:46.868Z,98127.08
2022-12-04T19:57:15.454Z,98123.29
2022-12-04T19:59:46.631Z,98128.04
2022-12-04T20:02:15.831Z,98133.15
2022-12-04T20:04:45.608Z,98133.63
2022-12-04T20:07:14.495Z,98135.48
2022-12-04T20:09:47.404Z,98127.91
2022-12-04T20:12:19.237Z,98132.59
2022-12-04T20:14:48.024Z,98131.96
2022-12-04T20:17:16.604Z,98125.96
2022-12-04T20:19:45.191Z,98130.59
2022-12-04T20:22:13.874Z,98129.21
2022-12-04T20:24:43.279Z,98125.61
2022-12-04T20:27:11.884Z,98127.90
2022-12-04T20:29:40.757Z,98126.24
2022-12-04T20:32:09.311Z,98118.08
2022-12-04T20:34:43.345Z,98118.60
2022-12-04T20:37:12.453Z,98127.66
2022-12-04T20:39:41.128Z,98131.06
2022-12-04T20:42:09.611Z,98126.21
2022-12-04T20:44:38.501Z,98122.85
2022-12-04T20:47:07.173Z,98124.61
2022-12-04T20:49:35.661Z,98129.20
2022-12-04T20:52:04.758Z,98130.23
2022-12-04T20:54:37.963Z,98124.91
2022-12-04T20:57:10.830Z,98128.54
2022-12-04T20:59:39.312Z,98130.22
2022-12-04T21:02:07.971Z,98133.48
2022-12-04T21:04:38.510Z,98139.85
2022-12-04T21:07:07.625Z,98138.87
2022-12-04T21:09:36.412Z,98142.56
2022-12-04T21:12:25.681Z,98137.70
2022-12-04T21:15:13.007Z,98143.29
2022-12-04T21:17:42.303Z,98144.30
2022-12-04T21:20:12.140Z,98150.77
2022-12-04T21:22:40.702Z,98147.27
2022-12-04T21:25:10.519Z,98144.77
2022-12-04T21:27:39.094Z,98146.52
2022-12-04T21:30:08.621Z,98146.93
2022-12-04T21:32:37.390Z,98147.80
2022-12-04T21:35:06.684Z,98146.42
2022-12-04T21:37:35.475Z,98152.36
2022-12-04T21:40:04.538Z,98152.87
2022-12-04T21:42:33.462Z,98151.49
2022-12-04T21:45:06.346Z,98149.08
2022-12-04T21:47:37.822Z,98150.27
2022-12-04T21:50:08.819Z,98152.70
2022-12-04T21:52:37.416Z,98156.45
2022-12-04T21:55:06.786Z,98156.81
2022-12-04T21:57:35.405Z,98153.42
2022-12-04T22:00:06.096Z,98154.95
2022-12-04T22:02:36.562Z,98155.16
2022-12-04T22:05:05.490Z,98152.44
2022-12-04T22:07:34.420Z,98153.29
2022-12-04T22:10:10.047Z,98156.55
2022-12-04T22:12:49.608Z,98153.66
2022-12-04T22:15:19.660Z,98148.65
2022-12-04T22:17:48.319Z,98148.92
2022-12-04T22:20:17.741Z,98143.98
2022-12-04T22:22:46.733Z,98137.02
2022-12-04T22:25:15.536Z,98139.55
2022-12-04T22:27:44.108Z,98138.17
2022-12-04T22:30:13.504Z,98144.34
2022-12-04T22:32:42.301Z,98140.39
2022-12-04T22:35:12.409Z,98139.03
2022-12-04T22:37:44.241Z,98143.64
2022-12-04T22:40:15.085Z,98146.02
2022-12-04T22:42:44.715Z,98139.67
2022-12-04T22:45:13.272Z,98142.64
2022-12-04T22:47:41.820Z,98139.03
2022-12-04T22:50:12.369Z,98144.52
2022-12-04T22:52:41.516Z,98142.08
2022-12-04T22:55:10.503Z,98143.95
2022-12-04T22:57:39.837Z,98142.43
2022-12-04T23:00:09.723Z,98145.59
2022-12-04T23:02:38.809Z,98146.80
2022-12-04T23:05:08.193Z,98150.42
2022-12-04T23:07:38.159Z,98149.77
2022-12-04T23:10:07.839Z,98149.23
2022-12-04T23:12:37.169Z,98148.59
2022-12-04T23:15:06.950Z,98147.23
2022-12-04T23:17:35.796Z,98151.90
2022-12-04T23:20:05.244Z,98144.40
2022-12-04T23:22:34.144Z,98147.52
2022-12-04T23:25:04.459Z,98141.73
2022-12-04T23:27:33.360Z,98146.70
2022-12-04T23:30:02.244Z,98139.17
2022-12-04T23:32:31.228Z,98135.08
2022-12-04T23:35:00.123Z,98138.05
2022-12-04T23:37:29.419Z,98131.89
2022-12-04T23:39:59.266Z,98130.56
2022-12-04T23:42:32.842Z,98137.98
2022-12-04T23:45:01.934Z,98137.15
2022-12-04T23:47:30.815Z,98135.59
2022-12-04T23:50:00.667Z,98140.44
2022-12-04T23:52:30.355Z,98139.27
2022-12-04T23:54:59.235Z,98136.36
2022-12-04T23:57:32.328Z,98135.15
